Time;durP1;ratioP1;P1;durP2;ratioP2;P2;SDS_P1;SDS_P2;PMS_P1;PMS_P2;Temp;Humidity;BMP_temperature;BMP_pressure;BME280_temperature;BME280_humidity;BME280_pressure;Samples;Min_cycle;Max_cycle;Signal;HPM_P1;HPM_P2
2023/12/13 00:02:11;;;;;;;83.13;36.55;;;;;;;2.16;100.00;100036.09;5058905;28;20040;-78
2023/12/13 00:04:37;;;;;;;91.78;33.45;;;;;;;2.36;100.00;100008.47;5055571;28;20025;-78
2023/12/13 00:07:02;;;;;;;73.00;34.08;;;;;;;2.50;100.00;99996.44;5055812;28;20447;-80
2023/12/13 00:09:28;;;;;;;65.10;31.92;;;;;;;2.48;100.00;99971.28;5052900;28;20052;-84
2023/12/13 00:11:53;;;;;;;61.15;32.00;;;;;;;2.32;100.00;99959.78;5035878;28;20167;-82
2023/12/13 00:14:20;;;;;;;53.85;29.17;;;;;;;2.40;100.00;99986.09;5034442;28;20120;-82
2023/12/13 00:16:46;;;;;;;62.03;32.55;;;;;;;1.73;100.00;99932.88;5034482;28;20056;-80
2023/12/13 00:19:11;;;;;;;67.47;32.88;;;;;;;1.58;100.00;99959.03;5036328;28;20029;-79
2023/12/13 00:21:37;;;;;;;78.00;35.88;;;;;;;1.15;100.00;99921.50;5044637;28;20026;-79
2023/12/13 00:24:02;;;;;;;72.93;36.90;;;;;;;1.37;100.00;99972.63;5035186;28;20033;-79
2023/12/13 00:26:28;;;;;;;82.85;37.67;;;;;;;1.33;100.00;99934.53;5034865;28;20037;-78
2023/12/13 00:28:53;;;;;;;67.18;32.38;;;;;;;2.00;100.00;99977.28;5032709;28;20036;-84
2023/12/13 00:31:19;;;;;;;53.75;28.73;;;;;;;1.85;100.00;99925.50;5040524;28;20049;-81
2023/12/13 00:33:44;;;;;;;53.42;28.58;;;;;;;2.18;100.00;99977.06;5031527;28;20095;-81
2023/12/13 00:36:10;;;;;;;49.40;24.02;;;;;;;2.25;100.00;99936.94;5031748;28;20112;-80
2023/12/13 00:38:35;;;;;;;43.83;23.00;;;;;;;2.35;100.00;99964.72;5031366;28;20013;-79
2023/12/13 00:41:01;;;;;;;62.15;28.73;;;;;;;2.09;100.00;99967.56;5038277;28;20063;-77
2023/12/13 00:43:26;;;;;;;59.00;30.83;;;;;;;1.71;100.00;99984.81;5051230;28;20392;-78
2023/12/13 00:45:52;;;;;;;73.03;35.35;;;;;;;1.35;100.00;99985.09;5050862;28;20025;-78
2023/12/13 00:48:17;;;;;;;70.75;35.63;;;;;;;1.01;100.00;99957.09;5051141;28;20049;-78
2023/12/13 00:50:43;;;;;;;61.30;31.77;;;;;;;0.78;100.00;99962.91;5045012;28;20030;-79
2023/12/13 00:53:09;;;;;;;59.88;30.95;;;;;;;0.54;100.00;99979.38;5034360;28;20694;-79
2023/12/13 00:55:34;;;;;;;54.45;28.88;;;;;;;0.82;100.00;99994.09;5032909;28;20025;-79
2023/12/13 00:58:00;;;;;;;57.72;29.67;;;;;;;0.69;100.00;100003.22;5033914;28;20053;-78
2023/12/13 01:00:26;;;;;;;55.65;27.98;;;;;;;0.79;100.00;99975.03;5038686;28;20029;-79
2023/12/13 01:02:51;;;;;;;46.25;26.02;;;;;;;1.53;100.00;100008.59;5052390;28;20064;-79
2023/12/13 01:05:17;;;;;;;49.42;25.83;;;;;;;0.62;100.00;99931.34;5053795;28;20186;-80
2023/12/13 01:07:43;;;;;;;50.92;26.50;;;;;;;1.28;100.00;100018.25;5052547;28;20036;-80
2023/12/13 01:10:09;;;;;;;53.85;28.60;;;;;;;1.35;100.00;100006.94;5053495;28;20037;-80
2023/12/13 01:12:34;;;;;;;51.47;27.08;;;;;;;0.72;100.00;99939.13;5033713;28;20029;-79
2023/12/13 01:15:00;;;;;;;69.38;34.45;;;;;;;0.61;100.00;99921.81;5033378;28;20029;-80
2023/12/13 01:17:25;;;;;;;137.13;53.00;;;;;;;0.46;100.00;99920.78;5033577;28;20379;-79
2023/12/13 01:19:52;;;;;;;111.03;48.05;;;;;;;0.61;100.00;99950.69;5033497;28;20029;-78
2023/12/13 01:22:20;;;;;;;187.23;69.68;;;;;;;0.49;100.00;99938.81;5050144;28;20033;-79
2023/12/13 01:24:46;;;;;;;77.65;34.55;;;;;;;0.49;100.00;99954.56;5052054;28;20021;-80
2023/12/13 01:27:11;;;;;;;66.55;32.17;;;;;;;0.85;100.00;99912.41;5051825;28;20047;-81
2023/12/13 01:29:37;;;;;;;63.55;32.22;;;;;;;0.77;100.00;99956.00;5053625;28;20083;-79
2023/12/13 01:32:02;;;;;;;59.47;30.52;;;;;;;0.45;100.00;99940.13;5051597;28;20049;-79
2023/12/13 01:34:28;;;;;;;59.35;31.23;;;;;;;0.50;100.00;99953.59;5053532;28;20025;-79
2023/12/13 01:36:54;;;;;;;65.93;30.42;;;;;;;0.68;100.00;99941.22;5053269;28;20108;-79
2023/12/13 01:39:19;;;;;;;72.03;31.17;;;;;;;0.75;100.00;99972.91;5052062;28;20067;-80
2023/12/13 01:41:45;;;;;;;72.82;28.20;;;;;;;0.37;100.00;99962.72;5044370;28;20035;-79
2023/12/13 01:44:10;;;;;;;87.22;30.20;;;;;;;0.55;100.00;99967.06;5052050;28;20461;-80
2023/12/13 01:46:37;;;;;;;95.55;30.00;;;;;;;0.75;100.00;99939.59;5053619;28;20405;-80
2023/12/13 01:49:05;;;;;;;72.85;28.38;;;;;;;0.70;100.00;99947.13;5051705;28;20028;-80
2023/12/13 01:51:32;;;;;;;59.08;25.13;;;;;;;0.68;100.00;99962.22;5045440;28;20034;-79
2023/12/13 01:53:58;;;;;;;79.43;27.70;;;;;;;0.55;100.00;99957.41;5052133;28;20029;-80
2023/12/13 01:56:23;;;;;;;78.38;26.27;;;;;;;0.42;100.00;99941.25;5053798;28;20074;-82
2023/12/13 01:58:49;;;;;;;146.68;28.98;;;;;;;0.34;100.00;99928.91;5052567;28;20021;-84
2023/12/13 02:01:15;;;;;;;86.43;27.42;;;;;;;0.86;100.00;99933.25;5047514;28;20029;-80
2023/12/13 02:03:41;;;;;;;146.35;29.38;;;;;;;0.95;100.00;99962.97;5049459;28;20025;-80
2023/12/13 02:06:06;;;;;;;170.10;37.75;;;;;;;0.75;100.00;99934.34;5052828;28;20492;-79
2023/12/13 02:08:33;;;;;;;137.52;38.65;;;;;;;1.23;100.00;99950.44;5051682;28;20021;-80
2023/12/13 02:10:59;;;;;;;88.95;33.80;;;;;;;0.91;100.00;99877.63;5051231;28;20496;-80
2023/12/13 02:13:25;;;;;;;94.80;30.90;;;;;;;1.49;100.00;99945.06;5044618;28;20122;-82
2023/12/13 02:15:51;;;;;;;87.55;31.92;;;;;;;1.18;100.00;99915.94;5052885;28;21267;-80
2023/12/13 02:18:17;;;;;;;82.03;27.20;;;;;;;1.21;100.00;99886.72;5052607;28;20024;-80
2023/12/13 02:20:43;;;;;;;71.60;24.80;;;;;;;1.34;100.00;99894.94;5051567;28;20025;-81
2023/12/13 02:23:09;;;;;;;69.93;27.45;;;;;;;1.50;100.00;99915.16;5042598;28;20032;-81
2023/12/13 02:25:42;;;;;;;120.40;41.30;;;;;;;1.29;100.00;99854.34;5052488;28;20029;-81
2023/12/13 02:28:09;;;;;;;132.38;44.70;;;;;;;1.35;100.00;99886.06;5052156;28;20515;-81
2023/12/13 02:30:34;;;;;;;73.90;30.20;;;;;;;1.10;100.00;99879.13;5052199;28;20033;-80
2023/12/13 02:33:00;;;;;;;61.15;28.58;;;;;;;1.52;100.00;99943.91;5050904;28;20036;-81
2023/12/13 02:35:25;;;;;;;66.32;31.02;;;;;;;1.50;100.00;99938.78;5051186;28;20029;-81
2023/12/13 02:37:51;;;;;;;68.18;34.88;;;;;;;1.33;100.00;99913.50;5052697;28;20154;-81
2023/12/13 02:40:18;;;;;;;63.28;32.17;;;;;;;1.66;100.00;99950.31;5050933;28;20032;-80
2023/12/13 02:42:43;;;;;;;51.70;28.02;;;;;;;1.27;100.00;99904.47;5042388;28;20032;-80
2023/12/13 02:45:11;;;;;;;56.33;24.23;;;;;;;1.45;100.00;99951.63;5050954;28;20106;-80
2023/12/13 02:47:41;;;;;;;49.25;23.65;;;;;;;1.26;100.00;99929.06;5052056;28;20026;-80
2023/12/13 02:50:13;;;;;;;61.53;29.17;;;;;;;1.33;100.00;99950.28;5052907;28;20057;-80
2023/12/13 02:52:41;;;;;;;79.75;33.38;;;;;;;1.26;100.00;99930.88;5050390;28;20440;-80
2023/12/13 02:55:10;;;;;;;184.57;65.53;;;;;;;0.86;100.00;99917.50;5052170;28;20028;-80
2023/12/13 02:57:37;;;;;;;60.83;30.52;;;;;;;0.68;100.00;99914.16;5051974;28;20025;-80
2023/12/13 03:00:03;;;;;;;44.08;24.10;;;;;;;0.44;100.00;99893.88;5050961;28;20102;-80
2023/12/13 03:02:29;;;;;;;43.75;23.40;;;;;;;0.71;100.00;99892.84;5042986;28;20025;-79
2023/12/13 03:04:54;;;;;;;43.88;23.85;;;;;;;0.80;100.00;99876.97;5030320;28;20401;-80
2023/12/13 03:07:21;;;;;;;128.77;68.30;;;;;;;1.34;100.00;99931.72;5030791;28;20064;-81
2023/12/13 03:09:46;;;;;;;42.72;23.45;;;;;;;0.84;100.00;99905.50;5030976;28;20494;-80
2023/12/13 03:12:12;;;;;;;52.08;24.48;;;;;;;0.84;100.00;99861.72;5037136;28;20032;-80
2023/12/13 03:14:37;;;;;;;51.45;27.13;;;;;;;1.18;100.00;99897.53;5050594;28;20036;-83
2023/12/13 03:17:03;;;;;;;55.45;28.25;;;;;;;1.28;100.00;99907.91;5051664;28;20465;-80
2023/12/13 03:19:28;;;;;;;56.88;28.63;;;;;;;1.35;100.00;99935.19;5050611;28;20036;-82
2023/12/13 03:21:53;;;;;;;53.03;28.90;;;;;;;1.41;100.00;99939.78;5048568;28;20119;-79
2023/12/13 03:24:19;;;;;;;58.45;28.08;;;;;;;1.22;100.00;99932.19;5046180;28;20025;-80
2023/12/13 03:26:44;;;;;;;59.45;25.90;;;;;;;1.26;100.00;99905.44;5051142;28;20067;-80
2023/12/13 03:29:10;;;;;;;59.22;26.25;;;;;;;0.78;100.00;99839.53;5050276;28;20398;-79
2023/12/13 03:31:35;;;;;;;48.85;28.02;;;;;;;0.93;100.00;99855.47;5051389;28;20047;-80
2023/12/13 03:34:00;;;;;;;53.80;29.67;;;;;;;1.20;100.00;99880.63;5031662;28;20021;-80
2023/12/13 03:36:27;;;;;;;59.13;32.45;;;;;;;1.21;100.00;99884.09;5031210;28;20045;-80
2023/12/13 03:38:53;;;;;;;54.83;29.38;;;;;;;1.68;100.00;99922.06;5031347;28;20040;-80
2023/12/13 03:41:19;;;;;;;54.75;31.60;;;;;;;1.32;100.00;99896.09;5030527;28;20075;-80
2023/12/13 03:43:45;;;;;;;61.63;37.45;;;;;;;1.02;100.00;99882.56;5031730;28;20105;-81
2023/12/13 03:46:10;;;;;;;48.25;25.73;;;;;;;0.96;100.00;99893.72;5031768;28;20113;-79
2023/12/13 03:48:36;;;;;;;47.10;24.40;;;;;;;0.66;100.00;99895.94;5030753;28;20498;-80
2023/12/13 03:51:02;;;;;;;59.90;25.25;;;;;;;0.15;100.00;99866.22;5031114;28;20079;-82
2023/12/13 03:53:28;;;;;;;67.43;26.25;;;;;;;-0.22;100.00;99841.09;5044711;28;20032;-79
2023/12/13 03:55:53;;;;;;;80.35;28.27;;;;;;;-0.09;100.00;99854.59;5051187;28;20032;-81
2023/12/13 03:58:18;;;;;;;56.17;25.67;;;;;;;-0.10;100.00;99863.44;5051438;28;20029;-79
2023/12/13 04:00:44;;;;;;;67.22;25.52;;;;;;;0.20;100.00;99892.78;5050107;28;20516;-81
2023/12/13 04:03:09;;;;;;;58.63;25.88;;;;;;;0.73;100.00;99912.69;5039486;28;20121;-81
2023/12/13 04:05:34;;;;;;;54.45;24.90;;;;;;;0.74;100.00;99903.84;5048896;28;20099;-79
2023/12/13 04:08:00;;;;;;;53.75;26.42;;;;;;;0.98;100.00;99953.00;5048869;28;20068;-79
2023/12/13 04:10:26;;;;;;;46.78;25.80;;;;;;;1.17;100.00;99951.06;5048991;28;20029;-80
2023/12/13 04:12:52;;;;;;;52.80;25.58;;;;;;;1.00;100.00;99918.66;5048444;28;20029;-81
2023/12/13 04:15:17;;;;;;;54.58;27.50;;;;;;;1.29;100.00;99960.28;5030589;28;20065;-80
2023/12/13 04:17:43;;;;;;;53.97;27.73;;;;;;;1.19;100.00;99928.91;5027602;28;20033;-81
2023/12/13 04:20:09;;;;;;;69.90;30.75;;;;;;;1.23;100.00;99928.56;5028829;28;20029;-79
2023/12/13 04:22:34;;;;;;;76.35;40.35;;;;;;;1.14;100.00;99910.16;5028856;28;20044;-79
2023/12/13 04:25:00;;;;;;;61.20;32.88;;;;;;;1.03;100.00;99933.31;5045415;28;20549;-79
2023/12/13 04:27:25;;;;;;;55.78;26.88;;;;;;;1.09;100.00;99943.16;5052291;28;20028;-83
2023/12/13 04:29:51;;;;;;;54.47;26.65;;;;;;;0.94;100.00;99914.91;5054143;28;20482;-79
2023/12/13 04:32:16;;;;;;;48.10;24.15;;;;;;;1.20;100.00;99925.28;5054509;28;20049;-83
2023/12/13 04:34:42;;;;;;;47.15;23.73;;;;;;;1.02;100.00;99916.69;5034646;28;20037;-80
2023/12/13 04:37:07;;;;;;;46.65;26.10;;;;;;;0.84;100.00;99902.88;5034285;28;20037;-79
2023/12/13 04:39:33;;;;;;;55.42;26.05;;;;;;;0.72;100.00;99937.31;5034738;28;20025;-79
2023/12/13 04:41:58;;;;;;;49.28;26.65;;;;;;;0.56;100.00;99903.13;5034583;28;20026;-80
2023/12/13 04:44:27;;;;;;;51.80;28.25;;;;;;;0.59;100.00;99931.66;5051356;28;20065;-81
2023/12/13 04:47:02;;;;;;;57.03;29.77;;;;;;;0.89;100.00;99932.91;5054949;28;20039;-79
2023/12/13 04:49:28;;;;;;;49.15;28.02;;;;;;;0.75;100.00;99915.16;5055238;28;20040;-81
2023/12/13 04:51:53;;;;;;;57.95;28.77;;;;;;;0.69;100.00;99911.34;5054056;28;20029;-80
2023/12/13 04:54:19;;;;;;;62.30;31.85;;;;;;;0.58;100.00;99919.53;5054036;28;20044;-80
2023/12/13 04:56:44;;;;;;;63.58;30.23;;;;;;;0.97;100.00;99971.53;5054001;28;20104;-79
2023/12/13 04:59:10;;;;;;;61.00;31.52;;;;;;;0.92;100.00;99966.75;5053087;28;20028;-79
2023/12/13 05:01:35;;;;;;;59.95;30.10;;;;;;;0.90;100.00;99962.63;5054475;28;20028;-82
2023/12/13 05:04:00;;;;;;;53.78;29.73;;;;;;;1.33;100.00;99956.34;5053887;28;20483;-81
2023/12/13 05:06:26;;;;;;;62.97;32.70;;;;;;;1.50;100.00;99957.19;5053942;28;20485;-81
2023/12/13 05:08:51;;;;;;;61.63;32.53;;;;;;;1.22;100.00;99954.03;5054023;28;20039;-79
2023/12/13 05:11:17;;;;;;;63.50;32.88;;;;;;;1.11;100.00;99976.16;5052823;28;20029;-79
2023/12/13 05:13:42;;;;;;;69.60;41.25;;;;;;;1.06;100.00;99912.78;5053882;28;20032;-81
2023/12/13 05:16:08;;;;;;;76.32;43.17;;;;;;;1.77;100.00;99965.75;5033459;28;20127;-80
2023/12/13 05:18:33;;;;;;;90.35;47.33;;;;;;;1.74;100.00;99963.47;5033809;28;20470;-80
2023/12/13 05:21:01;;;;;;;120.57;55.85;;;;;;;1.72;100.00;99939.97;5033147;28;20072;-79
2023/12/13 05:23:27;;;;;;;92.82;49.85;;;;;;;1.10;100.00;99893.09;5039409;28;20029;-80
2023/12/13 05:25:52;;;;;;;90.13;47.10;;;;;;;1.56;100.00;99919.75;5052711;28;20512;-81
2023/12/13 05:28:18;;;;;;;99.72;51.30;;;;;;;1.97;100.00;99951.28;5052239;28;20119;-80
2023/12/13 05:30:43;;;;;;;115.63;64.70;;;;;;;1.73;100.00;99932.88;5053729;28;20032;-80
2023/12/13 05:33:09;;;;;;;112.30;56.47;;;;;;;1.65;100.00;99922.38;5052774;28;20040;-79
2023/12/13 05:35:35;;;;;;;110.07;54.53;;;;;;;1.49;100.00;99921.41;5052981;28;20060;-79
2023/12/13 05:38:00;;;;;;;102.22;50.53;;;;;;;1.68;100.00;99943.91;5052896;28;20065;-81
2023/12/13 05:40:26;;;;;;;91.68;48.10;;;;;;;1.44;100.00;99894.78;5051832;28;20037;-80
2023/12/13 05:42:51;;;;;;;83.57;43.72;;;;;;;1.94;100.00;99956.88;5050781;28;20028;-81
2023/12/13 05:45:17;;;;;;;87.13;45.42;;;;;;;1.84;100.00;99915.94;5042138;28;20029;-80
2023/12/13 05:47:42;;;;;;;87.68;47.80;;;;;;;1.97;100.00;99948.66;5051280;28;20017;-80
2023/12/13 05:50:08;;;;;;;75.30;41.08;;;;;;;1.80;100.00;99924.19;5052137;28;20043;-79
2023/12/13 05:52:34;;;;;;;75.40;41.00;;;;;;;1.97;100.00;99951.28;5050329;28;20032;-79
2023/12/13 05:54:59;;;;;;;74.55;43.90;;;;;;;1.65;100.00;99922.38;5037083;28;20391;-79
2023/12/13 05:57:25;;;;;;;74.85;41.67;;;;;;;1.93;100.00;99923.69;5032983;28;20030;-79
2023/12/13 05:59:50;;;;;;;90.93;50.67;;;;;;;2.07;100.00;99931.88;5031568;28;20064;-80
2023/12/13 06:02:16;;;;;;;168.75;84.35;;;;;;;2.20;100.00;99946.16;5031630;28;20091;-79
2023/12/13 06:04:42;;;;;;;139.88;68.88;;;;;;;2.00;100.00;99905.41;5043567;28;20397;-82
2023/12/13 06:07:09;;;;;;;124.70;63.30;;;;;;;1.90;100.00;99931.06;5052879;28;20025;-80
2023/12/13 06:09:34;;;;;;;93.97;59.92;;;;;;;1.91;100.00;99911.69;5042909;28;20056;-79
2023/12/13 06:11:59;;;;;;;93.18;57.25;;;;;;;1.54;100.00;99874.41;5031269;28;20478;-79
2023/12/13 06:14:25;;;;;;;89.30;55.05;;;;;;;2.07;100.00;99919.56;5041905;28;20102;-80
2023/12/13 06:16:50;;;;;;;106.18;68.38;;;;;;;1.92;100.00;99918.56;5051039;28;20060;-79
2023/12/13 06:19:15;;;;;;;103.47;68.55;;;;;;;1.99;100.00;99924.81;5051136;28;20478;-79
2023/12/13 06:21:41;;;;;;;85.57;52.63;;;;;;;2.19;100.00;99952.41;5051991;28;20049;-83
2023/12/13 06:24:06;;;;;;;83.93;52.05;;;;;;;1.99;100.00;99933.53;5052288;28;20033;-80
2023/12/13 06:26:32;;;;;;;85.70;51.45;;;;;;;2.08;100.00;99928.25;5049549;28;20021;-79
2023/12/13 06:28:57;;;;;;;80.45;46.63;;;;;;;1.96;100.00;99899.69;5050902;28;20115;-78
2023/12/13 06:31:23;;;;;;;68.40;42.92;;;;;;;2.20;100.00;99905.88;5050602;28;20048;-79
2023/12/13 06:33:48;;;;;;;77.18;45.75;;;;;;;1.48;100.00;99840.91;5049444;28;20025;-79
2023/12/13 06:36:14;;;;;;;62.83;38.97;;;;;;;1.72;100.00;99871.59;5043051;28;20032;-79
2023/12/13 06:38:40;;;;;;;56.03;32.88;;;;;;;2.05;100.00;99903.13;5042266;28;20030;-82
2023/12/13 06:41:05;;;;;;;72.60;36.65;;;;;;;2.36;100.00;99911.09;5040637;28;20387;-80
2023/12/13 06:43:31;;;;;;;57.17;32.10;;;;;;;2.50;100.00;99924.56;5035902;28;20017;-83
2023/12/13 06:45:56;;;;;;;50.30;27.83;;;;;;;2.33;100.00;99914.06;5041354;28;20032;-79
2023/12/13 06:48:22;;;;;;;48.40;27.50;;;;;;;2.51;100.00;99897.22;5050959;28;20477;-87
2023/12/13 06:50:48;;;;;;;42.67;25.38;;;;;;;2.63;100.00;99924.81;5038166;28;20124;-83
2023/12/13 06:53:13;;;;;;;49.80;28.58;;;;;;;2.60;100.00;99906.75;5051625;28;20469;-79
2023/12/13 06:55:39;;;;;;;79.90;44.72;;;;;;;2.45;100.00;99890.81;5049065;28;20071;-78
2023/12/13 06:58:04;;;;;;;49.25;30.08;;;;;;;2.39;100.00;99910.75;5051845;28;20017;-81
2023/12/13 07:00:29;;;;;;;42.45;25.58;;;;;;;2.53;100.00;99942.63;5052060;28;20080;-79
2023/12/13 07:02:55;;;;;;;38.63;24.40;;;;;;;2.09;100.00;99908.88;5050464;28;20104;-79
2023/12/13 07:05:20;;;;;;;40.67;24.08;;;;;;;2.36;100.00;99921.63;5047905;28;20037;-78
2023/12/13 07:07:47;;;;;;;41.08;24.95;;;;;;;2.23;100.00;99905.53;5030679;28;20034;-78
2023/12/13 07:10:13;;;;;;;61.22;35.03;;;;;;;2.33;100.00;99953.53;5031704;28;20037;-79
2023/12/13 07:12:40;;;;;;;68.53;40.05;;;;;;;2.35;100.00;99919.16;5032048;28;20039;-77
2023/12/13 07:15:06;;;;;;;79.10;42.35;;;;;;;2.31;100.00;99918.69;5041290;28;20025;-79
2023/12/13 07:17:32;;;;;;;70.15;39.25;;;;;;;2.33;100.00;99906.19;5030354;28;20032;-79
2023/12/13 07:19:57;;;;;;;71.90;36.05;;;;;;;2.18;100.00;99905.22;5040486;28;20032;-80
2023/12/13 07:22:22;;;;;;;76.65;35.88;;;;;;;2.31;100.00;99926.56;5037115;28;20044;-78
2023/12/13 07:24:48;;;;;;;84.93;33.40;;;;;;;2.47;100.00;99902.00;5036278;28;20404;-82
2023/12/13 07:27:13;;;;;;;65.28;28.90;;;;;;;2.68;100.00;99930.41;5050407;28;20108;-77
2023/12/13 07:29:42;;;;;;;60.17;26.75;;;;;;;2.53;100.00;99911.84;5051042;28;20032;-79
2023/12/13 07:32:08;;;;;;;48.40;19.70;;;;;;;2.34;100.00;99928.84;5050834;28;20049;-85
2023/12/13 07:34:34;;;;;;;68.15;22.00;;;;;;;2.04;100.00;99937.47;5049673;28;20046;-78
2023/12/13 07:37:00;;;;;;;59.65;21.13;;;;;;;2.18;100.00;99911.28;5049621;28;20037;-79
2023/12/13 07:39:26;;;;;;;104.45;25.42;;;;;;;2.25;100.00;99879.88;5050883;28;20060;-76
2023/12/13 07:41:51;;;;;;;67.38;26.35;;;;;;;2.52;100.00;99904.94;5049557;28;20033;-78
2023/12/13 07:44:17;;;;;;;61.20;20.63;;;;;;;2.21;100.00;99886.47;5043047;28;20025;-77
2023/12/13 07:46:42;;;;;;;97.47;26.13;;;;;;;2.64;100.00;99915.13;5040509;28;20030;-77
2023/12/13 07:49:08;;;;;;;57.80;24.65;;;;;;;2.55;100.00;99872.19;5029978;28;20464;-78
2023/12/13 07:51:34;;;;;;;53.08;19.02;;;;;;;2.75;100.00;99897.09;5031186;28;20029;-77
2023/12/13 07:54:00;;;;;;;50.33;20.77;;;;;;;2.25;100.00;99871.16;5030932;28;20109;-78
2023/12/13 07:56:26;;;;;;;43.05;20.48;;;;;;;2.32;100.00;99862.41;5039627;28;20037;-78
2023/12/13 07:58:51;;;;;;;70.93;22.55;;;;;;;2.41;100.00;99902.69;5031342;28;20041;-78
2023/12/13 08:01:17;;;;;;;63.63;22.17;;;;;;;2.47;100.00;99869.59;5035098;28;20091;-78
2023/12/13 08:03:45;;;;;;;59.53;20.58;;;;;;;2.64;100.00;99892.25;5033960;28;20033;-77
2023/12/13 08:06:12;;;;;;;49.25;21.13;;;;;;;2.66;100.00;99840.22;5048045;28;20418;-78
2023/12/13 08:08:39;;;;;;;45.00;21.90;;;;;;;2.86;100.00;99842.41;5053781;28;20025;-79
2023/12/13 08:11:05;;;;;;;47.58;23.63;;;;;;;3.04;100.00;99869.28;5054836;28;20033;-78
2023/12/13 08:13:30;;;;;;;42.17;23.05;;;;;;;3.18;100.00;99876.44;5053915;28;20493;-78
2023/12/13 08:15:56;;;;;;;48.95;28.02;;;;;;;3.49;100.00;99846.56;5046106;28;20123;-77
2023/12/13 08:18:21;;;;;;;51.33;32.45;;;;;;;3.50;100.00;99860.56;5054849;28;20108;-78
2023/12/13 08:20:46;;;;;;;46.60;23.10;;;;;;;3.20;100.00;99856.00;5053409;28;20029;-78
2023/12/13 08:23:12;;;;;;;44.33;25.48;;;;;;;3.27;100.00;99823.69;5054763;28;20021;-78
2023/12/13 08:25:38;;;;;;;45.17;22.63;;;;;;;3.51;100.00;99818.19;5054443;28;20063;-79
2023/12/13 08:28:03;;;;;;;47.28;24.98;;;;;;;3.17;100.00;99805.50;5052903;28;20107;-77
2023/12/13 08:30:29;;;;;;;76.43;39.55;;;;;;;3.35;100.00;99790.19;5054688;28;20029;-78
2023/12/13 08:32:54;;;;;;;56.03;28.70;;;;;;;3.05;100.00;99820.06;5054466;28;20080;-78
2023/12/13 08:35:20;;;;;;;69.18;32.22;;;;;;;2.88;100.00;99830.72;5050268;28;20037;-85
2023/12/13 08:37:45;;;;;;;86.28;35.00;;;;;;;3.27;100.00;99850.03;5034625;28;20116;-79
2023/12/13 08:40:11;;;;;;;74.78;30.77;;;;;;;3.32;100.00;99852.97;5034647;28;20029;-78
2023/12/13 08:42:37;;;;;;;73.85;30.83;;;;;;;2.78;100.00;99835.41;5035023;28;20053;-77
2023/12/13 08:45:03;;;;;;;80.00;27.52;;;;;;;2.73;100.00;99837.72;5035800;28;20036;-77
2023/12/13 08:47:29;;;;;;;76.20;28.13;;;;;;;3.01;100.00;99845.94;5053103;28;20444;-77
2023/12/13 08:49:54;;;;;;;81.30;27.95;;;;;;;3.27;100.00;99828.94;5052973;28;20032;-78
2023/12/13 08:52:20;;;;;;;79.65;27.27;;;;;;;3.54;100.00;99854.75;5053381;28;20473;-77
2023/12/13 08:54:46;;;;;;;66.53;27.63;;;;;;;3.45;100.00;99805.72;5054149;28;20021;-79
2023/12/13 08:57:11;;;;;;;79.28;26.60;;;;;;;3.45;100.00;99815.47;5040570;28;20033;-77
2023/12/13 08:59:37;;;;;;;76.07;25.67;;;;;;;3.17;100.00;99819.47;5033951;28;20100;-79
2023/12/13 09:02:03;;;;;;;67.85;26.80;;;;;;;3.82;100.00;99841.81;5033052;28;20478;-78
2023/12/13 09:04:28;;;;;;;71.95;26.85;;;;;;;3.61;100.00;99787.13;5033076;28;20030;-78
2023/12/13 09:06:54;;;;;;;84.75;27.33;;;;;;;3.91;100.00;99816.16;5046704;28;20025;-78
2023/12/13 09:09:19;;;;;;;80.88;28.60;;;;;;;4.53;100.00;99792.97;5032804;28;20022;-81
2023/12/13 09:11:46;;;;;;;71.35;24.90;;;;;;;3.87;100.00;99705.91;5032829;28;20033;-78
2023/12/13 09:14:12;;;;;;;83.82;30.67;;;;;;;4.35;100.00;99807.41;5034205;28;20507;-78
2023/12/13 09:16:38;;;;;;;83.95;32.95;;;;;;;5.92;100.00;99818.97;5040683;28;20033;-78
2023/12/13 09:19:07;;;;;;;82.15;34.50;;;;;;;5.75;100.00;99784.88;5051061;28;20553;-79
2023/12/13 09:21:33;;;;;;;63.22;26.40;;;;;;;6.03;100.00;99807.91;5053570;28;20079;-82
2023/12/13 09:23:58;;;;;;;69.90;29.10;;;;;;;5.89;100.00;99791.09;5053409;28;20021;-80
2023/12/13 09:26:24;;;;;;;81.75;29.23;;;;;;;4.42;100.00;99776.59;5053074;28;20033;-79
2023/12/13 09:28:49;;;;;;;85.38;36.40;;;;;;;4.10;100.00;99735.63;5037507;28;20240;-79
2023/12/13 09:31:14;;;;;;;62.28;26.77;;;;;;;4.23;100.00;99791.22;5032276;28;20494;-80
2023/12/13 09:33:40;;;;;;;65.65;24.70;;;;;;;4.11;100.00;99749.66;5032151;28;20029;-78
2023/12/13 09:36:07;;;;;;;71.97;27.20;;;;;;;4.01;100.00;99761.28;5038310;28;20059;-79
2023/12/13 09:38:32;;;;;;;65.70;27.85;;;;;;;3.79;100.00;99775.41;5041467;28;20117;-78
2023/12/13 09:40:58;;;;;;;72.20;28.20;;;;;;;3.94;100.00;99723.47;5033845;28;20460;-79
2023/12/13 09:43:25;;;;;;;70.70;29.80;;;;;;;4.15;100.00;99754.38;5032050;28;20678;-79
2023/12/13 09:45:53;;;;;;;81.30;30.70;;;;;;;4.03;100.00;99767.22;5034153;28;20405;-80
2023/12/13 09:48:22;;;;;;;84.15;45.72;;;;;;;4.31;100.00;99742.78;5051315;28;20025;-78
2023/12/13 09:50:58;;;;;;;94.07;39.70;;;;;;;4.59;100.00;99774.56;5051796;28;20489;-77
2023/12/13 09:53:25;;;;;;;67.88;28.25;;;;;;;4.38;100.00;99770.06;5052945;28;20112;-79
2023/12/13 09:55:52;;;;;;;69.63;29.60;;;;;;;4.46;100.00;99763.84;5052600;28;20513;-79
2023/12/13 09:58:18;;;;;;;73.43;29.23;;;;;;;4.02;100.00;99689.06;5046116;28;20037;-79
2023/12/13 10:00:43;;;;;;;76.72;30.05;;;;;;;4.55;100.00;99754.00;5031829;28;20087;-81
2023/12/13 10:03:09;;;;;;;74.45;30.95;;;;;;;4.72;100.00;99722.88;5031835;28;20037;-79
2023/12/13 10:05:39;;;;;;;67.43;30.05;;;;;;;4.62;100.00;99680.94;5032707;28;20034;-79
2023/12/13 10:08:04;;;;;;;61.72;26.73;;;;;;;5.21;100.00;99759.06;5038600;28;20021;-78
2023/12/13 10:10:35;;;;;;;58.42;25.25;;;;;;;5.66;100.00;99750.84;5031433;28;20037;-79
2023/12/13 10:13:01;;;;;;;52.13;23.40;;;;;;;5.39;100.00;99716.28;5047577;28;20025;-80
2023/12/13 10:15:33;;;;;;;39.30;20.25;;;;;;;5.58;100.00;99739.41;5051287;28;20028;-78
2023/12/13 10:18:01;;;;;;;40.30;20.00;;;;;;;5.89;100.00;99735.50;5042413;28;20017;-78
2023/12/13 10:20:27;;;;;;;39.40;20.45;;;;;;;6.07;100.00;99720.94;5052814;28;20120;-78
2023/12/13 10:22:53;;;;;;;40.05;19.80;;;;;;;6.04;100.00;99719.50;5052132;28;20100;-78
2023/12/13 10:25:22;;;;;;;37.03;20.52;;;;;;;6.19;100.00;99698.16;5051378;28;20058;-78
2023/12/13 10:27:48;;;;;;;40.28;22.95;;;;;;;6.42;100.00;99706.59;5047135;28;20021;-79
2023/12/13 10:30:14;;;;;;;35.92;19.33;;;;;;;8.17;100.00;99692.91;5050383;28;20036;-78
2023/12/13 10:32:40;;;;;;;40.60;27.73;;;;;;;7.00;100.00;99710.53;5051862;28;20049;-78
2023/12/13 10:35:06;;;;;;;36.28;20.42;;;;;;;7.67;100.00;99735.16;5052546;28;20044;-77
2023/12/13 10:37:36;;;;;;;31.13;19.88;;;;;;;7.09;100.00;99735.00;5048686;28;20033;-79
2023/12/13 10:40:03;;;;;;;29.23;17.92;;;;;;;6.80;100.00;99678.72;5047349;28;20421;-78
2023/12/13 10:42:29;;;;;;;27.50;15.52;;;;;;;7.58;100.00;99734.56;5051850;28;20032;-79
2023/12/13 10:44:55;;;;;;;28.00;17.35;;;;;;;8.26;100.00;99709.41;5052077;28;20033;-79
2023/12/13 10:47:25;;;;;;;27.20;15.52;;;;;;;8.12;100.00;99729.09;5050650;28;20025;-79
2023/12/13 10:49:55;;;;;;;52.67;29.60;;;;;;;7.27;100.00;99721.94;5051877;28;20037;-79
2023/12/13 10:52:23;;;;;;;26.45;16.63;;;;;;;8.16;100.00;99717.00;5052024;28;20114;-78
2023/12/13 10:54:50;;;;;;;29.35;15.95;;;;;;;7.41;100.00;99698.88;5050621;28;20033;-78
2023/12/13 10:57:16;;;;;;;32.00;19.95;;;;;;;7.46;100.00;99725.59;5050532;28;20517;-77
2023/12/13 10:59:42;;;;;;;31.90;18.83;;;;;;;7.38;100.00;99729.28;5051243;28;20124;-78
2023/12/13 11:02:18;;;;;;;23.55;14.30;;;;;;;7.78;100.00;99731.03;5050554;28;20029;-79
2023/12/13 11:04:44;;;;;;;23.42;14.95;;;;;;;7.90;100.00;99708.13;5051710;28;20032;-79
2023/12/13 11:07:09;;;;;;;26.98;14.85;;;;;;;7.96;100.00;99712.59;5051935;28;20432;-82
2023/12/13 11:09:35;;;;;;;24.25;15.25;;;;;;;8.13;100.00;99706.78;5051638;28;20409;-79
2023/12/13 11:12:11;;;;;;;34.10;22.90;;;;;;;7.96;100.00;99701.97;5050052;28;20643;-79